Airfield :
LOGIN :

Register | Disclaimer

   EN    FR    IT 

 










Legend :    VFR   Marginal VFR   IFR   Intensive IFR   Very Intensive IFR
Visi :
Ceiling :
>= 8 km
>= 3000ft
5 to 8 km
1000 to 3000 ft
1500m to 5 km
500 to 1000 ft
800 to 1500m
200 to 500 ft
< 800m
< 200 ft
Symbols :   Thunderstorms  Fog  Heavy snow  Heavy precipitations  Wind > 20 kt
SIGMETs :     Misc.  Thunderstorms  Icing  Turbulence  Mountain Waves  Volcanic Ashes







- Airport Elevation : 270 ft
- IATA code : OXF
- Download approach charts


EGTK - Oxford (Kidlington)

CURRENT METAR :
  • 191220Z 14009KT 4500 BR SCT011 BKN015 16/15 Q1001

EXPIRED METARs :
  • 191150Z 12006KT 3000 FEW005 BKN008 16/15 Q1001
  • 191120Z 10006KT 2700 FEW005 OVC007 16/15 Q1002
  • 191050Z 10005KT 2500 BR FEW005 OVC008 15/15 Q1003
  • 191020Z 10005KT 2200 BR VV/// 15/14 Q1003
  • 190950Z 10005KT 2200 BR VV/// 14/14 Q1004

TAF TAF EGTK
Valid from the 19 at 12:00 until the 19 at 21:00 UTC


191101Z 1912/1921 10005KT 9999 SCT007
BECMG 1912/1914 18012KT
TEMPO 1912/1916 3000 RA BR BKN005
PROB30
TEMPO 1916/1918 17015G25KT
No reported NOTAMs for that airfield.



MET'MAP, your aeronautical weather chart ! - Copyright ORBIFLY December 2007 - Disclaimer

ORBIFLY MET'MAP TEAM :

Programming & Development : Alexandra Zaïnal
Concept & Development : Baudouin d'Aumeries
Co-Development & Prog : Marc-Olivier Méhu
Technical & hardware support : Manuel Goepfert

Contact : metmap@orbifly.com




SOURCES & CREDITS :

   NOAA